Time;durP1;ratioP1;P1;durP2;ratioP2;P2;SDS_P1;SDS_P2;PMS_P1;PMS_P2;Temp;Humidity;BMP_temperature;BMP_pressure;BME280_temperature;BME280_humidity;BME280_pressure;Samples;Min_cycle;Max_cycle;Signal;HPM_P1;HPM_P2
2023/04/07 00:00:33;;;;;;;11.90;6.53;;;4.20;78.60;;;;;;5203819;28;20206;-51
2023/04/07 00:03:06;;;;;;;10.93;5.60;;;4.10;79.20;;;;;;5202486;28;20801;-50
2023/04/07 00:05:37;;;;;;;9.70;5.90;;;4.00;79.50;;;;;;5199712;28;20186;-51
2023/04/07 00:08:07;;;;;;;7.10;6.40;;;4.00;80.30;;;;;;5203426;28;20942;-51
2023/04/07 00:10:38;;;;;;;10.40;6.10;;;4.00;80.70;;;;;;5201553;28;20211;-51
2023/04/07 00:13:09;;;;;;;6.73;5.40;;;4.00;81.60;;;;;;5202970;28;20182;-50
2023/04/07 00:15:39;;;;;;;9.73;6.67;;;3.90;83.30;;;;;;5189178;28;20192;-50
2023/04/07 00:18:10;;;;;;;10.70;6.57;;;3.90;82.50;;;;;;5205732;28;20183;-50
2023/04/07 00:20:40;;;;;;;16.87;7.00;;;3.90;83.30;;;;;;5206092;28;20683;-50
2023/04/07 00:23:11;;;;;;;11.70;6.30;;;3.90;83.70;;;;;;5202915;28;20250;-49
2023/04/07 00:25:42;;;;;;;13.60;7.57;;;3.80;84.20;;;;;;5202508;28;20250;-50
2023/04/07 00:28:12;;;;;;;10.70;7.27;;;3.80;85.10;;;;;;5199936;28;20259;-49
2023/04/07 00:30:43;;;;;;;11.37;6.30;;;3.60;86.10;;;;;;5202312;28;20207;-49
2023/04/07 00:33:14;;;;;;;16.73;6.20;;;3.70;88.20;;;;;;5199647;28;20579;-48
2023/04/07 00:35:44;;;;;;;9.40;6.43;;;3.60;89.70;;;;;;5202194;28;20654;-52
2023/04/07 00:38:15;;;;;;;9.60;7.23;;;3.60;90.60;;;;;;5192971;28;20478;-47
2023/04/07 00:40:46;;;;;;;12.07;7.17;;;3.50;90.10;;;;;;5203184;28;20212;-50
2023/04/07 00:43:18;;;;;;;8.03;6.20;;;3.50;90.00;;;;;;5185750;28;20426;-50
2023/04/07 00:45:49;;;;;;;10.73;6.07;;;3.50;90.60;;;;;;5198018;28;20202;-49
2023/04/07 00:48:20;;;;;;;7.10;5.80;;;3.50;90.80;;;;;;5203375;28;20545;-49
2023/04/07 00:50:51;;;;;;;8.83;5.73;;;3.60;90.80;;;;;;5181899;28;20211;-49
2023/04/07 00:53:22;;;;;;;6.90;5.70;;;3.60;90.90;;;;;;5191341;28;20968;-49
2023/04/07 00:55:52;;;;;;;9.00;6.30;;;3.50;91.10;;;;;;5201387;28;20184;-49
2023/04/07 00:58:23;;;;;;;7.27;6.53;;;3.50;91.30;;;;;;5196148;28;20176;-50
2023/04/07 01:01:07;;;;;;;11.40;6.60;;;3.50;91.40;;;;;;5198753;28;20223;-48
2023/04/07 01:04:07;;;;;;;19.43;6.30;;;3.50;92.40;;;;;;5187035;28;20527;-49
2023/04/07 01:06:47;;;;;;;8.47;6.40;;;3.40;92.10;;;;;;5197231;28;20504;-50
2023/04/07 01:09:24;;;;;;;5.70;5.23;;;3.40;91.80;;;;;;5211272;28;20501;-49
2023/04/07 01:12:00;;;;;;;12.93;6.60;;;3.50;91.80;;;;;;5198619;28;20480;-48
2023/04/07 01:14:39;;;;;;;12.33;6.50;;;3.30;92.30;;;;;;5196010;28;21124;-49
2023/04/07 01:17:12;;;;;;;8.20;6.57;;;3.30;92.60;;;;;;5190367;28;20432;-49
2023/04/07 01:19:52;;;;;;;9.53;5.23;;;3.30;92.80;;;;;;5199385;28;20461;-49
2023/04/07 01:22:44;;;;;;;8.80;6.80;;;3.30;92.80;;;;;;5220271;28;20580;-50
2023/04/07 01:25:59;;;;;;;6.83;6.00;;;3.30;93.20;;;;;;5194315;28;20428;-49
2023/04/07 01:28:40;;;;;;;11.10;6.93;;;3.20;93.10;;;;;;5163687;28;20439;-50
2023/04/07 01:31:13;;;;;;;10.70;6.00;;;3.20;93.50;;;;;;5199884;28;20470;-49
2023/04/07 01:33:46;;;;;;;12.90;6.80;;;3.20;93.40;;;;;;5209077;28;20481;-51
2023/04/07 01:36:18;;;;;;;9.77;5.93;;;3.10;93.30;;;;;;5197556;28;20492;-50
2023/04/07 01:38:50;;;;;;;10.53;6.77;;;3.10;93.60;;;;;;5201792;28;20427;-49
2023/04/07 01:41:22;;;;;;;12.13;6.63;;;3.10;93.50;;;;;;5190273;28;20466;-49
2023/04/07 01:43:54;;;;;;;11.20;6.10;;;3.10;93.50;;;;;;5196328;28;20529;-50
2023/04/07 01:46:24;;;;;;;9.90;5.47;;;3.10;94.10;;;;;;5191759;28;20470;-49
2023/04/07 01:48:55;;;;;;;6.50;5.83;;;3.00;94.40;;;;;;5200728;28;20475;-51
2023/04/07 01:51:29;;;;;;;10.80;5.80;;;3.00;94.80;;;;;;5198498;28;20199;-50
2023/04/07 01:54:01;;;;;;;7.00;5.87;;;3.00;94.90;;;;;;5204157;28;20430;-49
2023/04/07 01:56:32;;;;;;;11.73;7.10;;;2.90;95.30;;;;;;5201810;28;21019;-50
2023/04/07 01:59:03;;;;;;;11.47;6.50;;;2.90;95.60;;;;;;5198479;28;20529;-51
2023/04/07 02:01:34;;;;;;;10.67;6.50;;;2.90;95.80;;;;;;5204275;28;21133;-49
2023/04/07 02:04:15;;;;;;;9.90;5.60;;;2.90;96.00;;;;;;5193516;28;20176;-51
2023/04/07 02:06:53;;;;;;;10.63;5.60;;;2.90;96.10;;;;;;5229870;28;20230;-49
2023/04/07 02:09:27;;;;;;;9.80;6.50;;;2.90;96.20;;;;;;5202900;28;20458;-48
2023/04/07 02:12:00;;;;;;;8.83;6.20;;;2.80;96.30;;;;;;5207008;28;20476;-49
2023/04/07 02:14:32;;;;;;;7.50;6.23;;;2.80;96.00;;;;;;5201160;28;20500;-49
2023/04/07 02:17:04;;;;;;;10.27;5.83;;;2.80;96.10;;;;;;5199257;28;21004;-50
2023/04/07 02:19:35;;;;;;;6.20;5.60;;;2.80;96.60;;;;;;5191419;28;20552;-49
2023/04/07 02:22:08;;;;;;;17.90;6.97;;;2.70;96.80;;;;;;5186273;28;22024;-50
2023/04/07 02:24:41;;;;;;;8.80;6.23;;;2.70;96.90;;;;;;5199243;28;20446;-49
2023/04/07 02:27:12;;;;;;;10.10;5.10;;;2.70;96.80;;;;;;5205484;28;20517;-49
2023/04/07 02:29:43;;;;;;;14.93;5.57;;;2.60;96.80;;;;;;5203247;28;20458;-49
2023/04/07 02:32:14;;;;;;;6.27;5.63;;;2.70;96.90;;;;;;5202696;28;20931;-50
2023/04/07 02:34:45;;;;;;;11.33;6.27;;;2.70;96.90;;;;;;5195049;28;20211;-50
2023/04/07 02:37:16;;;;;;;7.47;5.30;;;2.70;96.80;;;;;;5205085;28;20449;-49
2023/04/07 02:39:46;;;;;;;12.17;6.37;;;2.60;96.50;;;;;;5201406;28;20801;-49
2023/04/07 02:42:17;;;;;;;8.37;5.60;;;2.70;97.10;;;;;;5198625;28;20179;-50
2023/04/07 02:44:47;;;;;;;6.20;5.60;;;2.60;97.20;;;;;;5204612;28;20683;-50
2023/04/07 02:47:18;;;;;;;6.57;5.63;;;2.60;96.90;;;;;;5197024;28;20241;-49
2023/04/07 02:49:49;;;;;;;9.47;6.20;;;2.50;97.50;;;;;;5223057;28;20212;-49
2023/04/07 02:52:19;;;;;;;7.97;6.40;;;2.60;97.80;;;;;;5205202;28;20188;-49
2023/04/07 02:54:50;;;;;;;10.80;6.80;;;2.50;98.30;;;;;;5206889;28;20644;-49
2023/04/07 02:57:21;;;;;;;11.13;5.70;;;2.50;98.20;;;;;;5191884;28;20263;-48
2023/04/07 02:59:51;;;;;;;8.50;6.50;;;2.50;98.40;;;;;;5199876;28;20195;-50
2023/04/07 03:02:22;;;;;;;7.40;5.67;;;2.50;98.10;;;;;;5203881;28;20195;-49
2023/04/07 03:04:53;;;;;;;9.20;5.83;;;2.50;98.10;;;;;;5200309;28;20180;-50
2023/04/07 03:07:24;;;;;;;8.93;5.37;;;2.50;98.00;;;;;;5195254;28;20796;-50
2023/04/07 03:09:54;;;;;;;12.10;6.03;;;2.60;98.00;;;;;;5186783;28;20207;-50
2023/04/07 03:12:25;;;;;;;11.77;6.23;;;2.50;97.70;;;;;;5203174;28;20179;-48
2023/04/07 03:14:56;;;;;;;10.53;6.60;;;2.60;97.90;;;;;;5213047;28;20191;-50
2023/04/07 03:17:27;;;;;;;6.33;5.67;;;2.60;98.00;;;;;;5202018;28;20467;-49
2023/04/07 03:19:57;;;;;;;10.47;6.00;;;2.70;97.90;;;;;;5207312;28;20250;-49
2023/04/07 03:22:28;;;;;;;9.47;6.10;;;2.70;97.80;;;;;;5173517;28;20189;-50
2023/04/07 03:24:59;;;;;;;6.13;5.63;;;2.60;97.80;;;;;;5193905;28;20183;-49
2023/04/07 03:27:30;;;;;;;7.50;5.97;;;2.60;97.80;;;;;;5197091;28;20238;-49
2023/04/07 03:30:01;;;;;;;10.00;5.97;;;2.70;98.00;;;;;;5217131;28;20883;-49
2023/04/07 03:32:31;;;;;;;9.70;6.20;;;2.60;98.00;;;;;;5203542;28;20211;-49
2023/04/07 03:35:02;;;;;;;7.60;6.17;;;2.60;98.10;;;;;;5193004;28;20430;-49
2023/04/07 03:37:33;;;;;;;6.07;5.40;;;2.60;98.10;;;;;;5202981;28;20869;-49
2023/04/07 03:40:04;;;;;;;8.10;6.80;;;2.60;98.00;;;;;;5187027;28;20215;-49
2023/04/07 03:42:35;;;;;;;8.33;6.00;;;2.60;98.20;;;;;;5177988;28;20598;-49
2023/04/07 03:45:06;;;;;;;12.77;6.03;;;2.60;98.50;;;;;;5187037;28;20474;-49
2023/04/07 03:47:36;;;;;;;9.87;6.70;;;2.50;98.70;;;;;;5201900;28;20191;-49
2023/04/07 03:50:07;;;;;;;10.90;5.77;;;2.50;98.80;;;;;;5197620;28;20470;-48
2023/04/07 03:52:38;;;;;;;12.73;6.80;;;2.60;99.00;;;;;;5184564;28;20183;-49
2023/04/07 03:55:09;;;;;;;12.13;6.03;;;2.60;99.00;;;;;;5207284;28;20426;-49
2023/04/07 03:57:39;;;;;;;13.73;5.70;;;2.60;98.90;;;;;;5191543;28;20486;-49
2023/04/07 04:00:11;;;;;;;7.07;5.93;;;2.60;99.20;;;;;;5221072;28;20206;-50
2023/04/07 04:02:42;;;;;;;10.63;6.30;;;2.50;99.60;;;;;;5203623;28;20985;-49
2023/04/07 04:05:12;;;;;;;11.00;6.90;;;2.50;99.90;;;;;;5194180;28;20450;-50
2023/04/07 04:07:43;;;;;;;7.67;5.53;;;2.40;99.90;;;;;;5182449;28;20208;-49
2023/04/07 04:10:15;;;;;;;9.73;7.27;;;2.40;99.90;;;;;;5199673;28;20233;-49
2023/04/07 04:12:47;;;;;;;8.70;6.10;;;2.50;99.90;;;;;;5186471;28;20175;-49
2023/04/07 04:15:18;;;;;;;9.17;6.43;;;2.40;99.90;;;;;;5208837;28;20465;-50
2023/04/07 04:17:48;;;;;;;11.63;8.47;;;2.40;99.90;;;;;;5188661;28;20434;-51
2023/04/07 04:20:21;;;;;;;8.23;6.43;;;2.40;99.90;;;;;;5205447;28;20290;-49
2023/04/07 04:22:51;;;;;;;11.17;7.33;;;2.30;99.90;;;;;;5202962;28;20665;-50
2023/04/07 04:25:22;;;;;;;10.37;7.20;;;2.30;99.90;;;;;;5199016;28;20457;-50
2023/04/07 04:27:52;;;;;;;10.40;7.40;;;2.30;99.90;;;;;;5194253;28;20542;-50
2023/04/07 04:30:23;;;;;;;10.53;7.10;;;2.20;99.90;;;;;;5190734;28;20227;-50
2023/04/07 04:32:54;;;;;;;9.80;7.23;;;2.40;99.90;;;;;;5218985;28;20191;-49
2023/04/07 04:35:26;;;;;;;13.27;6.67;;;2.30;99.90;;;;;;5202489;28;20176;-51
2023/04/07 04:37:56;;;;;;;9.47;6.60;;;2.30;99.90;;;;;;5198247;28;20519;-48
2023/04/07 04:40:27;;;;;;;8.33;6.20;;;2.20;99.90;;;;;;5168400;28;21069;-50
2023/04/07 04:42:57;;;;;;;13.20;7.37;;;2.30;99.90;;;;;;5213262;28;20201;-50
2023/04/07 04:45:28;;;;;;;11.33;6.80;;;2.20;99.90;;;;;;5202599;28;20192;-49
2023/04/07 04:47:59;;;;;;;10.47;7.60;;;2.20;99.90;;;;;;5200863;28;20187;-48
2023/04/07 04:50:29;;;;;;;9.60;6.87;;;2.20;99.90;;;;;;5202433;28;20714;-49
2023/04/07 04:53:00;;;;;;;11.60;7.60;;;2.20;99.90;;;;;;5204849;28;20242;-48
2023/04/07 04:55:31;;;;;;;11.30;6.97;;;2.10;99.90;;;;;;5187479;28;22099;-48
2023/04/07 04:58:01;;;;;;;12.73;8.30;;;2.20;99.90;;;;;;5197255;28;20180;-49
2023/04/07 05:00:32;;;;;;;11.33;7.77;;;2.20;99.90;;;;;;5235153;23;20239;-50
2023/04/07 05:03:03;;;;;;;12.67;7.37;;;2.20;99.90;;;;;;5224504;28;20210;-49
2023/04/07 05:05:33;;;;;;;11.77;7.93;;;2.20;99.90;;;;;;5225765;28;20221;-48
2023/04/07 05:08:04;;;;;;;12.13;7.73;;;2.30;99.90;;;;;;5227980;28;20179;-48
2023/04/07 05:10:38;;;;;;;9.37;6.77;;;2.30;99.90;;;;;;5227690;28;20298;-47
2023/04/07 05:13:09;;;;;;;13.20;7.23;;;2.30;99.90;;;;;;5222254;28;20508;-49
2023/04/07 05:15:41;;;;;;;16.53;7.17;;;2.40;99.90;;;;;;5227294;28;20521;-47
2023/04/07 05:18:12;;;;;;;17.53;8.03;;;2.40;99.90;;;;;;5227614;28;20175;-50
2023/04/07 05:20:43;;;;;;;8.00;7.17;;;2.50;99.90;;;;;;5224698;28;20437;-48
2023/04/07 05:23:14;;;;;;;12.80;7.60;;;2.60;99.90;;;;;;5228531;28;20357;-54
2023/04/07 05:25:45;;;;;;;10.73;7.53;;;2.70;99.90;;;;;;5226754;28;20512;-49
2023/04/07 05:28:15;;;;;;;15.40;7.47;;;2.80;99.90;;;;;;5229078;28;20518;-47
2023/04/07 05:30:47;;;;;;;10.20;7.00;;;3.00;99.90;;;;;;5218954;28;20214;-48
2023/04/07 05:33:18;;;;;;;11.23;7.90;;;3.10;99.90;;;;;;5223673;28;20183;-48
2023/04/07 05:35:49;;;;;;;10.90;7.33;;;3.10;99.90;;;;;;5219606;28;20461;-47
2023/04/07 05:38:20;;;;;;;13.67;7.43;;;3.10;99.90;;;;;;5225903;28;20434;-48
2023/04/07 05:40:50;;;;;;;9.17;7.30;;;3.20;99.90;;;;;;5222934;28;20199;-48
2023/04/07 05:43:21;;;;;;;11.10;7.73;;;3.40;99.90;;;;;;5214686;28;20452;-49
2023/04/07 05:45:52;;;;;;;12.73;7.33;;;3.50;99.90;;;;;;5218614;28;20191;-48
2023/04/07 05:48:22;;;;;;;11.30;7.30;;;3.60;99.90;;;;;;5213793;28;20198;-49
2023/04/07 05:50:53;;;;;;;14.73;7.40;;;3.70;99.90;;;;;;5218430;28;20269;-48
2023/04/07 05:53:23;;;;;;;12.07;7.33;;;3.90;99.90;;;;;;5226149;28;20187;-48
2023/04/07 05:55:54;;;;;;;17.83;7.60;;;3.90;99.90;;;;;;5218383;28;20191;-48
2023/04/07 05:58:25;;;;;;;12.23;8.40;;;4.00;99.90;;;;;;5222816;28;20269;-47
2023/04/07 06:00:56;;;;;;;11.27;7.20;;;4.00;99.90;;;;;;5223820;28;20543;-48
2023/04/07 06:03:26;;;;;;;12.90;8.23;;;4.00;99.90;;;;;;5223932;28;20191;-47
2023/04/07 06:05:57;;;;;;;10.53;7.00;;;4.00;99.90;;;;;;5222074;28;20198;-48
2023/04/07 06:08:28;;;;;;;9.40;6.97;;;3.90;99.90;;;;;;5221220;28;20599;-48
2023/04/07 06:10:58;;;;;;;11.50;7.00;;;3.90;99.90;;;;;;5220583;28;20289;-50
2023/04/07 06:13:29;;;;;;;19.70;8.27;;;3.90;99.90;;;;;;5215324;28;20191;-48
2023/04/07 06:16:00;;;;;;;15.17;7.67;;;4.10;99.90;;;;;;5222167;28;20591;-47
2023/04/07 06:18:30;;;;;;;9.20;6.90;;;4.40;99.90;;;;;;5221335;28;20210;-48
2023/04/07 06:21:01;;;;;;;12.50;7.90;;;4.60;99.90;;;;;;5220758;28;20203;-48
2023/04/07 06:23:32;;;;;;;10.90;6.87;;;4.70;99.90;;;;;;5220551;28;20203;-48
2023/04/07 06:26:02;;;;;;;12.80;7.60;;;4.80;99.50;;;;;;5221638;28;20245;-49
2023/04/07 06:28:33;;;;;;;12.17;7.30;;;4.80;99.30;;;;;;5219994;28;20192;-47
2023/04/07 06:31:04;;;;;;;9.20;7.03;;;4.90;99.30;;;;;;5223224;28;20691;-48
2023/04/07 06:33:35;;;;;;;11.47;6.83;;;5.00;99.30;;;;;;5225533;28;20203;-49
2023/04/07 06:36:06;;;;;;;10.60;7.30;;;5.10;99.30;;;;;;5221062;28;20605;-48
2023/04/07 06:38:37;;;;;;;11.07;7.60;;;5.30;98.20;;;;;;5218489;28;20684;-48
2023/04/07 06:41:11;;;;;;;12.63;8.03;;;5.20;98.20;;;;;;5209081;28;20465;-47
2023/04/07 06:43:48;;;;;;;17.03;8.10;;;5.10;98.50;;;;;;5219103;28;20471;-49
2023/04/07 06:46:19;;;;;;;11.03;8.00;;;5.20;98.80;;;;;;5220416;28;20475;-48
2023/04/07 06:48:49;;;;;;;11.03;7.77;;;5.30;98.70;;;;;;5218251;28;20477;-48
2023/04/07 06:51:20;;;;;;;15.70;9.00;;;5.40;98.30;;;;;;5219644;28;20212;-48
2023/04/07 06:53:51;;;;;;;14.90;8.20;;;5.40;98.40;;;;;;5218128;28;20184;-47
2023/04/07 06:56:22;;;;;;;23.43;9.43;;;5.30;98.40;;;;;;5217685;28;20266;-48
2023/04/07 06:58:53;;;;;;;13.93;8.60;;;5.00;99.30;;;;;;5222684;28;20186;-49
2023/04/07 07:01:23;;;;;;;12.47;7.73;;;4.80;99.90;;;;;;5222078;28;20877;-49
2023/04/07 07:03:54;;;;;;;14.50;8.53;;;4.70;99.90;;;;;;5222952;28;20183;-48
2023/04/07 07:06:25;;;;;;;13.43;7.53;;;4.60;99.90;;;;;;5223839;28;20183;-49
2023/04/07 07:08:56;;;;;;;12.07;7.20;;;4.60;99.90;;;;;;5221814;28;20179;-47
2023/04/07 07:11:26;;;;;;;13.77;7.70;;;4.60;99.90;;;;;;5221372;28;20476;-47
2023/04/07 07:13:57;;;;;;;8.37;6.70;;;4.70;99.90;;;;;;5222863;28;20183;-47
2023/04/07 07:16:28;;;;;;;11.77;6.97;;;4.70;99.90;;;;;;5216118;28;20660;-48
2023/04/07 07:18:58;;;;;;;11.60;6.90;;;4.80;99.70;;;;;;5211745;28;20225;-49
2023/04/07 07:21:30;;;;;;;11.30;7.40;;;4.80;98.90;;;;;;5213745;28;20207;-49
2023/04/07 07:24:01;;;;;;;7.07;5.90;;;4.80;97.90;;;;;;5215033;28;20809;-49
2023/04/07 07:26:31;;;;;;;7.60;5.13;;;4.90;95.40;;;;;;5210750;28;20429;-49
2023/04/07 07:29:02;;;;;;;12.77;5.93;;;5.10;94.60;;;;;;5211157;28;20358;-48
2023/04/07 07:31:33;;;;;;;9.20;6.33;;;5.20;93.10;;;;;;5217548;28;20695;-50
2023/04/07 07:34:03;;;;;;;10.07;6.50;;;5.40;92.40;;;;;;5220935;28;20187;-48
2023/04/07 07:36:34;;;;;;;7.90;5.10;;;5.70;91.00;;;;;;5215234;28;20174;-48
2023/04/07 07:39:05;;;;;;;9.73;5.90;;;6.10;87.90;;;;;;5216053;28;20200;-48
2023/04/07 07:41:35;;;;;;;9.77;6.07;;;6.60;81.40;;;;;;5199185;28;20212;-48
2023/04/07 07:44:06;;;;;;;7.23;5.33;;;7.10;72.90;;;;;;5216355;28;20193;-48
2023/04/07 07:46:37;;;;;;;7.50;5.20;;;6.90;70.60;;;;;;5216990;28;21277;-48
2023/04/07 07:49:07;;;;;;;6.17;5.03;;;6.70;67.00;;;;;;5208675;28;20514;-48
2023/04/07 07:51:38;;;;;;;6.47;4.40;;;6.60;69.20;;;;;;5212114;28;20218;-49
2023/04/07 07:54:09;;;;;;;15.60;6.00;;;6.50;67.90;;;;;;5214128;28;20238;-47
2023/04/07 07:56:39;;;;;;;9.50;4.93;;;6.40;67.50;;;;;;5221291;28;20247;-47
2023/04/07 07:59:10;;;;;;;10.70;4.87;;;6.40;67.90;;;;;;5216902;28;20240;-49
2023/04/07 08:01:41;;;;;;;10.90;6.10;;;6.60;68.30;;;;;;5216600;28;20355;-48
2023/04/07 08:04:11;;;;;;;4.90;4.50;;;6.40;66.90;;;;;;5194918;28;20215;-49
2023/04/07 08:06:42;;;;;;;13.50;5.50;;;6.30;66.80;;;;;;5206026;28;20198;-49
2023/04/07 08:09:12;;;;;;;7.67;5.60;;;6.20;64.50;;;;;;5202220;28;20177;-48
2023/04/07 08:11:43;;;;;;;6.80;5.70;;;6.10;65.00;;;;;;5212698;28;20220;-50
2023/04/07 08:14:14;;;;;;;8.00;5.60;;;6.10;64.50;;;;;;5186466;28;20192;-48
2023/04/07 08:16:45;;;;;;;6.90;4.87;;;6.10;64.00;;;;;;5214913;28;20176;-47
2023/04/07 08:19:16;;;;;;;8.80;5.93;;;6.10;62.40;;;;;;5221307;28;20442;-49
2023/04/07 08:21:46;;;;;;;6.10;4.80;;;6.00;61.90;;;;;;5220138;28;20497;-48
2023/04/07 08:24:17;;;;;;;9.90;5.73;;;6.10;59.90;;;;;;5216305;28;20196;-48
2023/04/07 08:26:48;;;;;;;7.80;4.87;;;6.40;59.40;;;;;;5219410;28;20261;-50
2023/04/07 08:29:19;;;;;;;7.33;5.33;;;6.70;57.90;;;;;;5219058;28;20231;-50
2023/04/07 08:31:49;;;;;;;5.30;4.47;;;6.90;57.10;;;;;;5217362;28;20233;-48
2023/04/07 08:34:20;;;;;;;9.23;4.83;;;7.00;56.40;;;;;;5216173;28;20525;-49
2023/04/07 08:36:51;;;;;;;5.10;4.60;;;7.00;55.50;;;;;;5216416;28;20257;-48
2023/04/07 08:39:24;;;;;;;7.83;5.33;;;6.80;56.30;;;;;;5213794;28;20182;-49
2023/04/07 08:41:56;;;;;;;7.20;4.90;;;6.60;56.80;;;;;;5220392;28;20245;-50
2023/04/07 08:44:28;;;;;;;9.63;5.30;;;6.70;57.20;;;;;;5221684;28;20854;-49
2023/04/07 08:47:02;;;;;;;5.03;4.27;;;6.70;57.40;;;;;;5218444;28;20441;-48
2023/04/07 08:49:36;;;;;;;6.30;4.17;;;6.80;56.70;;;;;;5203812;28;20798;-49
2023/04/07 08:52:10;;;;;;;10.30;4.63;;;6.90;54.00;;;;;;5221319;28;22855;-50
2023/04/07 08:54:41;;;;;;;5.80;2.80;;;6.70;53.60;;;;;;5219579;28;20435;-49
2023/04/07 08:57:13;;;;;;;3.73;3.00;;;6.60;52.40;;;;;;5216903;28;20480;-51
2023/04/07 08:59:47;;;;;;;7.43;3.57;;;6.60;52.50;;;;;;5213444;28;20511;-49
2023/04/07 09:02:18;;;;;;;6.37;3.97;;;6.50;51.20;;;;;;5215468;28;20438;-49
2023/04/07 09:04:49;;;;;;;4.63;3.13;;;6.50;50.90;;;;;;5216533;28;20775;-48
2023/04/07 09:07:20;;;;;;;3.80;3.50;;;6.70;50.50;;;;;;5214571;28;20496;-49
2023/04/07 09:09:51;;;;;;;7.70;2.90;;;6.60;48.20;;;;;;5213941;28;20214;-49
2023/04/07 09:12:21;;;;;;;2.93;2.73;;;6.50;47.80;;;;;;5207997;28;20185;-48
2023/04/07 09:14:53;;;;;;;3.87;3.00;;;6.30;48.50;;;;;;5218563;28;20434;-48
2023/04/07 09:17:27;;;;;;;3.47;3.17;;;6.10;49.00;;;;;;5213076;28;20261;-49
2023/04/07 09:19:59;;;;;;;3.27;2.57;;;6.00;50.50;;;;;;5222861;28;20508;-49
2023/04/07 09:22:42;;;;;;;5.83;3.37;;;6.00;50.80;;;;;;5213011;28;20536;-50
2023/04/07 09:25:17;;;;;;;4.67;3.47;;;6.10;51.70;;;;;;5220675;28;20963;-48
2023/04/07 09:28:01;;;;;;;3.20;2.97;;;6.20;51.70;;;;;;5218772;28;20547;-50
2023/04/07 09:30:33;;;;;;;4.67;3.07;;;6.30;51.10;;;;;;5215980;28;20522;-49
2023/04/07 09:33:03;;;;;;;3.67;3.27;;;6.20;50.70;;;;;;5220481;28;20444;-48
2023/04/07 09:35:51;;;;;;;3.00;2.63;;;6.10;51.10;;;;;;5216542;28;21325;-48
2023/04/07 09:38:22;;;;;;;3.63;2.60;;;6.10;52.10;;;;;;5211403;28;20234;-49
2023/04/07 09:41:06;;;;;;;3.53;2.67;;;6.10;52.50;;;;;;5215123;28;21040;-49
2023/04/07 09:43:44;;;;;;;3.10;2.83;;;6.10;52.20;;;;;;5217479;28;20621;-50
2023/04/07 09:46:17;;;;;;;3.17;2.97;;;6.00;52.70;;;;;;5210611;28;20790;-49
2023/04/07 09:49:02;;;;;;;2.73;2.53;;;5.80;54.00;;;;;;5211326;28;20454;-48
2023/04/07 09:51:33;;;;;;;3.53;2.63;;;5.90;54.10;;;;;;5216176;28;20569;-50
2023/04/07 09:54:03;;;;;;;6.73;2.80;;;5.90;54.20;;;;;;5235258;28;20978;-48
2023/04/07 09:56:35;;;;;;;3.80;3.07;;;5.90;54.70;;;;;;5229539;28;20187;-49
2023/04/07 09:59:08;;;;;;;3.93;3.23;;;5.70;55.20;;;;;;5219517;28;20198;-48
2023/04/07 10:01:40;;;;;;;2.90;2.70;;;5.90;56.20;;;;;;5215740;28;20998;-50
2023/04/07 10:04:11;;;;;;;3.30;2.83;;;5.90;56.40;;;;;;5219395;28;20537;-48
2023/04/07 10:06:42;;;;;;;2.90;2.67;;;5.90;56.90;;;;;;5222337;28;20423;-49
2023/04/07 10:09:13;;;;;;;4.67;3.20;;;5.80;56.70;;;;;;5216864;28;20447;-49
2023/04/07 10:11:44;;;;;;;4.17;2.97;;;5.80;57.70;;;;;;5214984;28;20528;-48
2023/04/07 10:14:16;;;;;;;4.67;3.43;;;5.90;58.30;;;;;;5218919;28;20799;-48
2023/04/07 10:16:47;;;;;;;7.00;3.47;;;6.00;58.30;;;;;;5216198;28;20468;-48
2023/04/07 10:19:19;;;;;;;3.33;3.10;;;6.10;58.70;;;;;;5235692;28;20470;-50
2023/04/07 10:21:52;;;;;;;3.07;2.83;;;6.00;58.20;;;;;;5213374;28;21063;-48
2023/04/07 10:24:47;;;;;;;3.90;3.13;;;6.00;59.40;;;;;;5221305;28;20767;-49
2023/04/07 10:27:29;;;;;;;3.03;2.73;;;6.00;59.60;;;;;;5218416;28;20457;-48
2023/04/07 10:30:03;;;;;;;9.00;3.33;;;6.10;59.90;;;;;;5220547;28;20563;-50
2023/04/07 10:32:46;;;;;;;3.43;2.80;;;6.20;61.50;;;;;;5216934;28;20438;-49
2023/04/07 10:35:17;;;;;;;6.33;2.93;;;6.00;63.10;;;;;;5218150;28;20442;-50
2023/04/07 10:38:06;;;;;;;5.23;3.60;;;5.80;65.80;;;;;;5219080;28;20560;-49
2023/04/07 10:40:38;;;;;;;5.47;3.70;;;5.80;69.10;;;;;;5214059;28;20469;-50
2023/04/07 10:43:13;;;;;;;3.63;3.10;;;6.00;70.90;;;;;;5221201;28;20442;-48
2023/04/07 10:45:47;;;;;;;5.23;3.37;;;6.10;72.70;;;;;;5218655;28;20444;-48
2023/04/07 10:48:19;;;;;;;4.53;4.13;;;6.20;76.00;;;;;;5218184;28;20509;-47
2023/04/07 10:51:22;;;;;;;4.70;4.30;;;6.20;79.60;;;;;;5217899;28;20522;-50
2023/04/07 10:54:15;;;;;;;6.50;3.50;;;6.30;86.30;;;;;;5225124;28;20527;-47
2023/04/07 10:57:07;;;;;;;4.60;3.30;;;6.30;91.50;;;;;;5214214;28;20529;-47
2023/04/07 11:02:22;;;;;;;11.13;4.50;;;6.00;99.90;;;;;;5196853;28;20478;-53
2023/04/07 11:04:52;;;;;;;4.50;4.10;;;6.00;99.90;;;;;;5204686;28;20443;-51
2023/04/07 11:07:43;;;;;;;6.60;6.00;;;6.00;99.90;;;;;;5198627;28;20896;-49
2023/04/07 11:10:15;;;;;;;8.40;5.63;;;6.10;99.90;;;;;;5197139;28;20309;-49
2023/04/07 11:13:01;;;;;;;10.00;6.53;;;6.00;99.90;;;;;;5200984;28;20505;-51
2023/04/07 11:15:34;;;;;;;11.97;7.60;;;6.10;99.90;;;;;;5197595;28;20923;-49
2023/04/07 11:18:18;;;;;;;12.57;9.30;;;6.00;99.90;;;;;;5199949;28;20437;-50
2023/04/07 11:20:52;;;;;;;15.83;11.67;;;5.90;99.90;;;;;;5200543;28;20458;-51
2023/04/07 11:23:24;;;;;;;19.20;11.53;;;5.80;99.90;;;;;;5197410;28;20450;-53
2023/04/07 11:26:02;;;;;;;15.33;10.70;;;5.90;99.90;;;;;;5192415;28;20443;-51
2023/04/07 11:28:33;;;;;;;18.03;11.87;;;5.90;99.90;;;;;;5195652;28;20819;-54
2023/04/07 11:31:03;;;;;;;14.93;11.00;;;6.10;99.90;;;;;;5195467;28;20477;-52
2023/04/07 11:33:35;;;;;;;17.93;11.67;;;6.20;99.90;;;;;;5192359;28;20241;-52
2023/04/07 11:36:06;;;;;;;15.17;11.63;;;6.10;99.90;;;;;;5196661;28;20548;-51
2023/04/07 11:38:38;;;;;;;13.97;10.03;;;6.00;99.90;;;;;;5194143;28;20441;-52
2023/04/07 11:41:13;;;;;;;11.13;8.93;;;6.00;99.90;;;;;;5191875;28;20988;-51
2023/04/07 11:43:44;;;;;;;9.93;8.70;;;6.10;99.90;;;;;;5202902;28;20438;-50
2023/04/07 11:46:16;;;;;;;15.90;10.33;;;6.10;99.90;;;;;;5196677;28;20447;-52
2023/04/07 11:48:47;;;;;;;10.17;8.00;;;5.90;99.90;;;;;;5193578;28;20213;-52
2023/04/07 11:51:24;;;;;;;16.03;9.37;;;5.90;99.90;;;;;;5195025;28;21058;-52
2023/04/07 11:53:55;;;;;;;8.80;6.93;;;5.90;99.90;;;;;;5196199;28;20182;-51
2023/04/07 11:56:26;;;;;;;9.57;6.93;;;6.00;99.90;;;;;;5196904;28;20462;-50
2023/04/07 11:58:58;;;;;;;9.70;6.23;;;6.20;99.90;;;;;;5197509;28;20948;-50
2023/04/07 12:01:40;;;;;;;8.80;6.00;;;6.10;99.90;;;;;;5196874;28;20461;-51
2023/04/07 12:04:15;;;;;;;8.00;6.07;;;6.20;99.90;;;;;;5194796;28;20951;-51
2023/04/07 12:06:46;;;;;;;6.93;6.23;;;6.30;99.90;;;;;;5196682;28;20502;-53
2023/04/07 12:09:34;;;;;;;8.20;7.23;;;6.40;99.90;;;;;;5196530;28;21638;-51
2023/04/07 12:12:06;;;;;;;11.13;6.30;;;6.50;99.90;;;;;;5192602;28;20469;-50
2023/04/07 12:14:37;;;;;;;6.23;5.63;;;6.30;99.90;;;;;;5191195;28;20432;-51
2023/04/07 12:17:20;;;;;;;7.60;5.90;;;6.30;99.90;;;;;;5192483;28;20446;-51
2023/04/07 12:19:52;;;;;;;6.60;5.47;;;6.10;99.90;;;;;;5193230;28;20240;-51
2023/04/07 12:22:23;;;;;;;7.87;6.17;;;5.90;99.90;;;;;;5197284;28;20474;-49
2023/04/07 12:24:53;;;;;;;7.90;6.37;;;5.80;99.90;;;;;;5196919;28;20536;-51
2023/04/07 12:27:24;;;;;;;7.00;6.30;;;5.70;99.90;;;;;;5197404;28;20189;-51
2023/04/07 12:29:55;;;;;;;9.50;5.80;;;5.70;99.90;;;;;;5195492;28;20186;-52
2023/04/07 12:32:27;;;;;;;7.20;6.27;;;5.70;99.90;;;;;;5194463;28;20457;-52
2023/04/07 12:34:58;;;;;;;8.67;5.70;;;5.60;99.90;;;;;;5192852;28;20189;-50
2023/04/07 12:37:29;;;;;;;9.17;6.03;;;5.70;99.90;;;;;;5191717;28;20443;-51
2023/04/07 12:40:00;;;;;;;6.87;5.90;;;5.70;99.90;;;;;;5195929;28;20259;-51
2023/04/07 12:42:30;;;;;;;7.90;6.00;;;5.70;99.90;;;;;;5193457;28;20612;-51
2023/04/07 12:45:02;;;;;;;10.77;7.00;;;5.90;99.90;;;;;;5192702;28;20250;-50
2023/04/07 12:47:32;;;;;;;10.73;6.57;;;5.80;99.90;;;;;;5192809;28;20993;-52
2023/04/07 12:50:03;;;;;;;6.13;4.50;;;5.90;99.90;;;;;;5193295;28;20650;-52
2023/04/07 12:52:35;;;;;;;5.67;5.03;;;5.70;99.90;;;;;;5189108;28;20211;-50
2023/04/07 12:55:05;;;;;;;5.77;5.37;;;5.70;99.90;;;;;;5193796;28;20965;-51
2023/04/07 12:57:36;;;;;;;7.50;4.30;;;5.70;99.90;;;;;;5191779;28;20432;-50
2023/04/07 13:00:07;;;;;;;3.80;3.50;;;6.00;99.90;;;;;;5188158;28;20218;-51
2023/04/07 13:02:38;;;;;;;5.50;3.93;;;6.10;99.90;;;;;;5195924;28;20191;-53
2023/04/07 13:05:09;;;;;;;3.50;3.20;;;6.30;99.90;;;;;;5194644;28;20764;-51
2023/04/07 13:07:39;;;;;;;9.37;4.50;;;6.10;99.90;;;;;;5193476;28;20594;-53
2023/04/07 13:10:10;;;;;;;7.40;3.80;;;6.10;99.90;;;;;;5188478;28;20213;-52
2023/04/07 13:12:41;;;;;;;2.93;2.70;;;6.20;99.90;;;;;;5192028;28;20190;-53
2023/04/07 13:15:11;;;;;;;3.40;3.20;;;6.20;99.90;;;;;;5196050;28;20641;-51
2023/04/07 13:17:42;;;;;;;3.37;3.17;;;6.30;99.90;;;;;;5196361;28;20235;-52
2023/04/07 13:20:13;;;;;;;3.03;2.77;;;6.30;99.90;;;;;;5198152;28;20210;-52
2023/04/07 13:22:43;;;;;;;4.93;4.10;;;6.60;99.90;;;;;;5199917;28;20265;-49